Airfield :
LOGIN :

Register | Disclaimer

   EN    FR    IT 

 










Legend :    VFR   Marginal VFR   IFR   Intensive IFR   Very Intensive IFR
Visi :
Ceiling :
>= 8 km
>= 3000ft
5 to 8 km
1000 to 3000 ft
1500m to 5 km
500 to 1000 ft
800 to 1500m
200 to 500 ft
< 800m
< 200 ft
Symbols :   Thunderstorms  Fog  Heavy snow  Heavy precipitations  Wind > 20 kt
SIGMETs :     Misc.  Thunderstorms  Icing  Turbulence  Mountain Waves  Volcanic Ashes






- Airport Elevation : 396 ft


LFOZ - Orléans St Denis

CURRENT METAR :
  • 080230Z AUTO 20012KT 5000 -RA BR OVC006 10/09 Q1015

EXPIRED METARs :
  • 080200Z AUTO 21009KT 7000 OVC006 10/09 Q1016
  • 080130Z AUTO 20010KT 9999 OVC007 10/09 Q1016
  • 080100Z AUTO 21010KT 9999 OVC005 10/09 Q1017
  • 080030Z AUTO 20010KT 5000 BR BKN007 OVC012 10/09 Q1017
  • 080000Z AUTO 21008KT 9999 BKN007 OVC011 10/09 Q1017

TAF N/A



MET'MAP, your aeronautical weather chart ! - Copyright ORBIFLY December 2007 - Disclaimer

ORBIFLY MET'MAP TEAM :

Programming & Development : Alexandra Zaïnal
Concept & original design : Baudouin d'Aumeries
Assistance for programming : Marc-Olivier Méhu
Technical & hardware support : Manuel Goepfert

Contact : metmap@orbifly.com




SOURCES & CREDITS :

   NOAA